createdAt,value
2022-10-22T00:02:25.621Z,5.00
2022-10-22T00:07:32.777Z,5.15
2022-10-22T00:10:02.010Z,4.72
2022-10-22T00:12:37.674Z,4.70
2022-10-22T00:15:10.089Z,4.75
2022-10-22T00:17:39.538Z,4.72
2022-10-22T00:20:10.534Z,4.90
2022-10-22T00:25:21.066Z,4.80
2022-10-22T00:27:50.000Z,4.43
2022-10-22T00:30:21.868Z,4.40
2022-10-22T00:32:56.419Z,4.00
2022-10-22T00:35:25.697Z,4.38
2022-10-22T00:37:54.730Z,4.55
2022-10-22T00:40:24.014Z,4.68
2022-10-22T00:42:54.464Z,5.13
2022-10-22T00:45:32.133Z,8.57
2022-10-22T00:48:06.650Z,7.93
2022-10-22T00:50:40.117Z,5.50
2022-10-22T00:53:14.390Z,6.38
2022-10-22T00:55:45.650Z,5.82
2022-10-22T00:58:15.496Z,6.32
2022-10-22T01:00:47.045Z,5.78
2022-10-22T01:05:57.520Z,5.38
2022-10-22T01:08:33.485Z,4.70
2022-10-22T01:11:15.242Z,5.03
2022-10-22T01:13:55.778Z,4.22
2022-10-22T01:16:35.455Z,3.95
2022-10-22T01:19:22.359Z,4.00
2022-10-22T01:21:57.553Z,4.22
2022-10-22T01:24:48.811Z,4.20
2022-10-22T01:27:28.841Z,3.83
2022-10-22T01:30:04.394Z,3.72
2022-10-22T01:32:39.622Z,4.07
2022-10-22T01:35:13.477Z,4.20
2022-10-22T01:37:57.687Z,4.80
2022-10-22T01:40:28.921Z,4.60
2022-10-22T01:43:00.045Z,4.90
2022-10-22T01:45:34.872Z,5.60
2022-10-22T01:48:14.768Z,5.43
2022-10-22T01:51:01.813Z,5.45
2022-10-22T01:56:52.527Z,6.32
2022-10-22T01:59:33.720Z,6.18
2022-10-22T02:02:10.605Z,6.32
2022-10-22T02:04:51.805Z,6.90
2022-10-22T02:07:24.921Z,6.25
2022-10-22T02:09:55.802Z,7.05
2022-10-22T02:12:28.408Z,7.03
2022-10-22T02:14:58.984Z,6.95
2022-10-22T02:17:34.830Z,7.55
2022-10-22T02:20:07.985Z,7.18
2022-10-22T02:22:38.029Z,7.85
2022-10-22T02:25:08.809Z,7.72
2022-10-22T02:30:37.729Z,7.60
2022-10-22T02:33:18.866Z,7.32
2022-10-22T02:35:54.456Z,7.88
2022-10-22T02:38:25.519Z,7.35
2022-10-22T02:40:54.901Z,7.38
2022-10-22T02:43:26.769Z,7.30
2022-10-22T02:45:56.017Z,7.70
2022-10-22T02:48:27.048Z,7.57
2022-10-22T02:50:56.206Z,7.53
2022-10-22T02:53:25.267Z,7.88
2022-10-22T02:55:54.520Z,7.15
2022-10-22T02:58:23.866Z,7.82
2022-10-22T03:00:53.068Z,7.80
2022-10-22T03:03:22.277Z,8.25
2022-10-22T03:05:54.429Z,7.25
2022-10-22T03:08:41.222Z,7.20
2022-10-22T03:11:10.428Z,8.00
2022-10-22T03:13:40.085Z,8.02
2022-10-22T03:16:14.413Z,7.43
2022-10-22T03:18:43.483Z,6.43
2022-10-22T03:21:23.882Z,6.85
2022-10-22T03:23:54.238Z,7.00
2022-10-22T03:26:23.948Z,6.68
2022-10-22T03:28:53.497Z,8.00
2022-10-22T03:31:22.902Z,6.57
2022-10-22T03:33:51.974Z,7.30
2022-10-22T03:36:23.093Z,7.15
2022-10-22T03:38:52.455Z,7.53
2022-10-22T03:41:21.764Z,7.57
2022-10-22T03:43:52.684Z,7.63
2022-10-22T03:46:27.065Z,8.50
2022-10-22T03:48:56.244Z,7.63
2022-10-22T03:51:28.452Z,7.78
2022-10-22T03:53:57.949Z,8.00
2022-10-22T03:56:27.058Z,7.60
2022-10-22T03:59:02.725Z,7.28
2022-10-22T04:01:32.434Z,8.02
2022-10-22T04:04:01.741Z,7.72
2022-10-22T04:06:38.295Z,8.45
2022-10-22T04:09:07.369Z,10.02
2022-10-22T04:11:36.516Z,9.68
2022-10-22T04:14:05.734Z,8.45
2022-10-22T04:16:34.769Z,8.15
2022-10-22T04:19:03.888Z,8.13
2022-10-22T04:24:10.489Z,8.55
2022-10-22T04:26:44.655Z,7.22
2022-10-22T04:29:16.138Z,8.27
2022-10-22T04:31:51.794Z,7.80
2022-10-22T04:34:20.854Z,7.50
2022-10-22T04:36:51.920Z,7.57
2022-10-22T04:39:26.073Z,7.63
2022-10-22T04:41:55.550Z,7.22
2022-10-22T04:44:24.777Z,8.18
2022-10-22T04:46:54.048Z,7.20
2022-10-22T04:49:23.110Z,6.72
2022-10-22T04:51:59.247Z,6.93
2022-10-22T04:54:32.146Z,7.75
2022-10-22T04:57:02.449Z,7.85
2022-10-22T04:59:31.591Z,7.82
2022-10-22T05:02:00.712Z,8.35
2022-10-22T05:04:30.619Z,9.50
2022-10-22T05:07:06.706Z,8.23
2022-10-22T05:09:40.928Z,8.45
2022-10-22T05:12:10.145Z,9.38
2022-10-22T05:14:44.952Z,9.27
2022-10-22T05:17:14.482Z,8.95
2022-10-22T05:19:43.601Z,8.90
2022-10-22T05:22:14.707Z,9.18
2022-10-22T05:24:43.840Z,9.57
2022-10-22T05:27:12.989Z,9.32
2022-10-22T05:29:42.025Z,9.63
2022-10-22T05:32:11.062Z,10.18
2022-10-22T05:34:40.536Z,9.90
2022-10-22T05:37:14.754Z,9.30
2022-10-22T05:39:46.735Z,9.63
2022-10-22T05:44:49.570Z,8.05
2022-10-22T05:47:18.717Z,8.70
2022-10-22T05:49:47.766Z,8.82
2022-10-22T05:52:17.181Z,8.68
2022-10-22T05:54:48.193Z,9.02
2022-10-22T05:57:17.506Z,8.48
2022-10-22T05:59:46.551Z,9.07
2022-10-22T06:02:15.684Z,9.27
2022-10-22T06:04:44.865Z,9.10
2022-10-22T06:07:33.343Z,8.90
2022-10-22T06:10:04.671Z,8.73
2022-10-22T06:12:40.983Z,8.77
2022-10-22T06:15:12.029Z,8.30
2022-10-22T06:20:17.115Z,8.48
2022-10-22T06:22:47.794Z,8.15
2022-10-22T06:25:24.234Z,8.75
2022-10-22T06:27:58.464Z,7.50
2022-10-22T06:30:27.631Z,7.80
2022-10-22T06:32:57.768Z,7.00
2022-10-22T06:35:27.232Z,6.22
2022-10-22T06:38:01.328Z,6.15
2022-10-22T06:40:32.427Z,6.55
2022-10-22T06:43:01.718Z,6.07
2022-10-22T06:45:30.869Z,6.47
2022-10-22T06:50:36.991Z,5.68
2022-10-22T06:53:06.217Z,5.72
2022-10-22T06:55:39.827Z,6.05
2022-10-22T06:58:09.095Z,6.20
2022-10-22T07:00:38.473Z,7.60
2022-10-22T07:03:07.728Z,5.95
2022-10-22T07:05:37.246Z,6.50
2022-10-22T07:08:11.458Z,6.28
2022-10-22T07:10:42.712Z,5.63
2022-10-22T07:13:12.395Z,5.75
2022-10-22T07:15:41.497Z,7.20
2022-10-22T07:18:10.802Z,6.63
2022-10-22T07:20:39.886Z,6.28
2022-10-22T07:23:09.085Z,6.18
2022-10-22T07:25:38.251Z,6.00
2022-10-22T07:28:09.564Z,5.70
2022-10-22T07:30:39.984Z,5.78
2022-10-22T07:33:09.552Z,6.43
2022-10-22T07:35:42.022Z,7.70
2022-10-22T07:38:11.669Z,8.05
2022-10-22T07:40:51.898Z,5.78
2022-10-22T07:43:25.146Z,6.00
2022-10-22T07:45:55.321Z,4.60
2022-10-22T07:48:25.112Z,4.13
2022-10-22T07:50:54.482Z,4.10
2022-10-22T07:53:23.658Z,3.47
2022-10-22T07:55:54.193Z,3.58
2022-10-22T07:58:25.802Z,3.35
2022-10-22T08:01:05.489Z,3.03
2022-10-22T08:03:35.258Z,3.00
2022-10-22T08:06:05.019Z,2.92
2022-10-22T08:08:34.426Z,2.40
2022-10-22T08:11:08.680Z,2.50
2022-10-22T08:13:45.845Z,2.08
2022-10-22T08:16:15.903Z,2.65
2022-10-22T08:18:45.168Z,2.53
2022-10-22T08:21:14.968Z,2.50
2022-10-22T08:23:43.950Z,2.60
2022-10-22T08:26:13.528Z,2.50
2022-10-22T08:28:44.550Z,2.38
2022-10-22T08:31:13.891Z,2.58
2022-10-22T08:33:42.969Z,2.20
2022-10-22T08:36:12.352Z,2.70
2022-10-22T08:38:41.620Z,2.67
2022-10-22T08:41:13.965Z,2.80
2022-10-22T08:44:12.514Z,2.58
2022-10-22T08:46:58.890Z,2.58
2022-10-22T08:49:42.112Z,3.22
2022-10-22T08:52:15.230Z,3.40
2022-10-22T08:54:57.630Z,3.90
2022-10-22T08:57:40.448Z,4.03
2022-10-22T09:00:19.622Z,5.13
2022-10-22T09:03:01.311Z,4.22
2022-10-22T09:05:41.518Z,4.90
2022-10-22T09:08:13.230Z,4.60
2022-10-22T09:10:50.709Z,5.10
2022-10-22T09:13:22.347Z,4.05
2022-10-22T09:15:57.189Z,4.80
2022-10-22T09:18:43.462Z,4.90
2022-10-22T09:21:26.060Z,5.07
2022-10-22T09:24:11.817Z,4.72
2022-10-22T09:26:46.202Z,4.75
2022-10-22T09:29:26.411Z,4.97
2022-10-22T09:31:57.892Z,4.97
2022-10-22T09:34:28.251Z,5.00
2022-10-22T09:37:02.069Z,5.30
2022-10-22T09:39:35.186Z,4.65
2022-10-22T09:42:05.373Z,4.38
2022-10-22T09:44:36.966Z,4.47
2022-10-22T09:47:18.278Z,4.53
2022-10-22T09:49:47.777Z,4.90
2022-10-22T09:52:29.480Z,4.63
2022-10-22T09:54:58.740Z,4.30
2022-10-22T09:57:37.873Z,4.47
2022-10-22T10:00:12.225Z,4.63
2022-10-22T10:02:45.261Z,4.22
2022-10-22T10:05:21.837Z,4.63
2022-10-22T10:07:55.966Z,4.30
2022-10-22T10:10:35.064Z,5.10
2022-10-22T10:13:25.384Z,4.32
2022-10-22T10:15:59.789Z,3.92
2022-10-22T10:18:42.868Z,4.60
2022-10-22T10:21:20.314Z,3.70
2022-10-22T10:23:59.686Z,4.00
2022-10-22T10:26:36.996Z,4.25
2022-10-22T10:29:24.214Z,4.65
2022-10-22T10:32:12.096Z,4.47
2022-10-22T10:34:50.133Z,4.30
2022-10-22T10:37:25.218Z,4.03
2022-10-22T10:40:13.833Z,4.60
2022-10-22T10:42:46.174Z,4.20
2022-10-22T10:45:20.726Z,4.65
2022-10-22T10:48:13.439Z,4.40
2022-10-22T10:50:56.628Z,3.92
2022-10-22T10:53:42.324Z,4.15
2022-10-22T10:56:34.425Z,3.45
2022-10-22T10:59:16.330Z,4.03
2022-10-22T11:01:56.860Z,3.83
2022-10-22T11:04:59.834Z,4.00
2022-10-22T11:07:37.265Z,4.38
2022-10-22T11:10:26.460Z,3.70
2022-10-22T11:13:01.089Z,4.00
2022-10-22T11:15:34.791Z,3.88
2022-10-22T11:18:17.112Z,3.85
2022-10-22T11:21:05.409Z,4.05
2022-10-22T11:23:43.800Z,3.83
2022-10-22T11:26:19.214Z,3.30
2022-10-22T11:28:59.276Z,3.10
2022-10-22T11:31:31.770Z,3.60
2022-10-22T11:34:32.218Z,3.28
2022-10-22T11:37:00.539Z,2.80
2022-10-22T11:39:39.801Z,3.10
2022-10-22T11:42:12.890Z,3.00
2022-10-22T11:47:22.567Z,4.35
2022-10-22T11:52:42.447Z,2.67
2022-10-22T11:55:35.150Z,2.88
2022-10-22T11:58:27.501Z,3.00
2022-10-22T12:01:23.965Z,2.78
2022-10-22T12:03:55.299Z,2.67
2022-10-22T12:06:30.889Z,2.90
2022-10-22T12:09:08.297Z,2.97
2022-10-22T12:11:41.485Z,3.33
2022-10-22T12:14:22.644Z,2.90
2022-10-22T12:17:01.441Z,3.55
2022-10-22T12:19:34.227Z,3.70
2022-10-22T12:22:13.836Z,3.47
2022-10-22T12:24:45.920Z,3.10
2022-10-22T12:27:22.697Z,4.05
2022-10-22T12:30:01.821Z,3.80
2022-10-22T12:32:40.803Z,3.73
2022-10-22T12:35:16.551Z,4.40
2022-10-22T12:37:53.080Z,3.60
2022-10-22T12:40:24.911Z,3.33
2022-10-22T12:43:01.340Z,2.83
2022-10-22T12:45:33.150Z,2.95
2022-10-22T12:48:07.138Z,3.50
2022-10-22T12:56:09.339Z,3.25
2022-10-22T12:58:42.693Z,3.38
2022-10-22T13:01:19.358Z,3.47
2022-10-22T13:03:51.493Z,3.70
2022-10-22T13:09:16.004Z,4.35
2022-10-22T13:11:53.237Z,4.18
2022-10-22T13:14:30.118Z,4.53
2022-10-22T13:17:08.225Z,4.43
2022-10-22T13:19:42.861Z,4.57
2022-10-22T13:22:28.743Z,5.03
2022-10-22T13:24:59.380Z,3.58
2022-10-22T13:27:32.268Z,3.55
2022-10-22T13:30:20.136Z,3.17
2022-10-22T13:32:54.044Z,3.30
2022-10-22T13:35:27.505Z,3.30
2022-10-22T13:37:56.812Z,3.28
2022-10-22T13:40:27.337Z,3.47
2022-10-22T13:43:08.650Z,3.63
2022-10-22T13:45:38.002Z,3.97
2022-10-22T13:48:07.691Z,4.03
2022-10-22T13:50:41.915Z,4.65
2022-10-22T13:53:18.806Z,4.70
2022-10-22T13:55:53.462Z,5.13
2022-10-22T13:58:25.644Z,6.07
2022-10-22T14:00:57.209Z,5.30
2022-10-22T14:03:29.990Z,4.88
2022-10-22T14:06:04.365Z,4.97
2022-10-22T14:08:44.083Z,4.38
2022-10-22T14:11:13.787Z,5.10
2022-10-22T14:13:44.792Z,5.18
2022-10-22T14:16:23.774Z,5.28
2022-10-22T14:18:54.189Z,5.53
2022-10-22T14:21:24.130Z,7.20
2022-10-22T14:24:04.488Z,5.85
2022-10-22T14:26:35.944Z,6.13
2022-10-22T14:29:11.171Z,5.95
2022-10-22T14:31:42.254Z,6.43
2022-10-22T14:34:13.841Z,6.18
2022-10-22T14:36:44.779Z,6.72
2022-10-22T14:39:13.988Z,6.35
2022-10-22T14:41:43.540Z,5.78
2022-10-22T14:44:15.485Z,5.47
2022-10-22T14:49:15.891Z,5.38
2022-10-22T14:51:44.941Z,6.00
2022-10-22T14:54:14.119Z,5.65
2022-10-22T14:56:45.022Z,5.45
2022-10-22T14:59:16.282Z,4.72
2022-10-22T15:01:50.426Z,6.20
2022-10-22T15:04:19.514Z,5.13
2022-10-22T15:06:48.610Z,6.03
2022-10-22T15:09:17.793Z,5.63
2022-10-22T15:11:46.959Z,5.43
2022-10-22T15:14:23.070Z,6.03
2022-10-22T15:16:52.242Z,6.40
2022-10-22T15:19:22.426Z,5.72
2022-10-22T15:21:54.111Z,5.47
2022-10-22T15:24:23.694Z,5.35
2022-10-22T15:26:53.755Z,5.65
2022-10-22T15:29:30.257Z,5.20
2022-10-22T15:32:00.193Z,5.10
2022-10-22T15:34:33.801Z,5.20
2022-10-22T15:37:06.775Z,5.13
2022-10-22T15:39:36.645Z,5.30
2022-10-22T15:42:06.205Z,5.53
2022-10-22T15:44:39.410Z,5.95
2022-10-22T15:47:09.563Z,7.00
2022-10-22T15:49:41.480Z,6.43
2022-10-22T15:52:10.776Z,6.97
2022-10-22T15:54:51.441Z,6.38
2022-10-22T15:57:20.882Z,6.40
2022-10-22T15:59:51.891Z,5.50
2022-10-22T16:02:21.094Z,5.85
2022-10-22T16:04:50.212Z,5.82
2022-10-22T16:07:22.456Z,6.03
2022-10-22T16:09:59.557Z,6.47
2022-10-22T16:12:34.363Z,8.73
2022-10-22T16:15:06.502Z,7.53
2022-10-22T16:17:40.771Z,7.80
2022-10-22T16:20:14.266Z,7.60
2022-10-22T16:22:52.033Z,8.20
2022-10-22T16:25:21.225Z,7.75
2022-10-22T16:27:51.653Z,7.35
2022-10-22T16:30:28.201Z,7.47
2022-10-22T16:32:57.378Z,7.25
2022-10-22T16:35:26.556Z,7.70
2022-10-22T16:37:55.949Z,7.47
2022-10-22T16:40:25.373Z,7.22
2022-10-22T16:42:55.074Z,6.65
2022-10-22T16:45:26.357Z,7.70
2022-10-22T16:47:55.933Z,7.25
2022-10-22T16:50:37.840Z,7.43
2022-10-22T16:55:37.942Z,7.72
2022-10-22T16:58:07.888Z,7.93
2022-10-22T17:00:39.036Z,8.05
2022-10-22T17:03:08.700Z,8.30
2022-10-22T17:05:38.352Z,7.72
2022-10-22T17:08:07.929Z,8.00
2022-10-22T17:10:41.457Z,8.43
2022-10-22T17:13:10.738Z,10.38
2022-10-22T17:15:42.276Z,11.32
2022-10-22T17:18:11.583Z,8.80
2022-10-22T17:20:43.243Z,9.27
2022-10-22T17:25:45.302Z,8.57
2022-10-22T17:28:14.652Z,8.13
2022-10-22T17:30:45.917Z,8.88
2022-10-22T17:33:15.026Z,7.97
2022-10-22T17:35:44.842Z,8.18
2022-10-22T17:38:19.390Z,8.15
2022-10-22T17:40:48.620Z,9.52
2022-10-22T17:43:17.917Z,9.38
2022-10-22T17:45:49.185Z,9.65
2022-10-22T17:48:18.598Z,8.75
2022-10-22T17:50:59.280Z,8.63
2022-10-22T17:53:29.180Z,8.25
2022-10-22T17:56:06.592Z,9.35
2022-10-22T17:58:35.769Z,8.43
2022-10-22T18:01:07.446Z,8.82
2022-10-22T18:06:10.203Z,7.95
2022-10-22T18:08:39.889Z,7.53
2022-10-22T18:11:10.016Z,7.80
2022-10-22T18:13:42.644Z,7.28
2022-10-22T18:16:14.669Z,9.50
2022-10-22T18:18:49.850Z,7.47
2022-10-22T18:21:19.790Z,7.30
2022-10-22T18:23:49.420Z,7.30
2022-10-22T18:26:21.585Z,6.93
2022-10-22T18:28:58.825Z,7.43
2022-10-22T18:31:30.523Z,7.45
2022-10-22T18:34:00.357Z,6.82
2022-10-22T18:36:30.004Z,7.10
2022-10-22T18:39:01.064Z,6.13
2022-10-22T18:41:32.469Z,6.22
2022-10-22T18:44:03.486Z,6.60
2022-10-22T18:46:38.004Z,6.40
2022-10-22T18:49:08.715Z,6.47
2022-10-22T18:51:37.902Z,8.00
2022-10-22T18:54:22.125Z,6.43
2022-10-22T18:57:02.591Z,7.05
2022-10-22T18:59:33.109Z,6.20
2022-10-22T19:02:04.394Z,6.60
2022-10-22T19:04:36.509Z,6.72
2022-10-22T19:07:05.988Z,6.65
2022-10-22T19:09:35.414Z,7.00
2022-10-22T19:12:04.906Z,7.07
2022-10-22T19:14:34.235Z,7.00
2022-10-22T19:17:10.556Z,8.55
2022-10-22T19:19:39.881Z,7.97
2022-10-22T19:22:09.028Z,7.05
2022-10-22T19:24:38.931Z,6.60
2022-10-22T19:27:08.224Z,7.70
2022-10-22T19:29:38.294Z,7.68
2022-10-22T19:32:10.059Z,6.88
2022-10-22T19:37:09.407Z,6.28
2022-10-22T19:39:38.831Z,7.75
2022-10-22T19:42:08.063Z,6.68
2022-10-22T19:44:40.038Z,7.43
2022-10-22T19:47:11.502Z,7.88
2022-10-22T19:49:42.114Z,7.72
2022-10-22T19:52:11.455Z,8.65
2022-10-22T19:54:44.134Z,7.88
2022-10-22T19:57:16.886Z,7.60
2022-10-22T19:59:51.263Z,7.82
2022-10-22T20:02:22.503Z,7.80
2022-10-22T20:04:52.081Z,8.25
2022-10-22T20:07:29.365Z,7.50
2022-10-22T20:10:02.347Z,8.63
2022-10-22T20:12:33.022Z,8.02
2022-10-22T20:15:02.774Z,8.38
2022-10-22T20:17:34.882Z,7.95
2022-10-22T20:20:04.108Z,8.65
2022-10-22T20:22:33.357Z,7.90
2022-10-22T20:27:43.405Z,9.90
2022-10-22T20:30:13.378Z,11.00
2022-10-22T20:32:45.032Z,11.88
2022-10-22T20:37:51.823Z,14.13
2022-10-22T20:40:26.392Z,13.93
2022-10-22T20:42:55.495Z,13.95
2022-10-22T20:45:24.497Z,12.35
2022-10-22T20:48:02.055Z,12.65
2022-10-22T20:50:35.183Z,12.00
2022-10-22T20:53:12.294Z,12.00
2022-10-22T20:55:42.812Z,12.45
2022-10-22T20:58:12.385Z,12.52
2022-10-22T21:00:41.541Z,11.82
2022-10-22T21:03:13.069Z,11.77
2022-10-22T21:05:42.894Z,10.57
2022-10-22T21:08:16.849Z,11.15
2022-10-22T21:10:48.625Z,10.57
2022-10-22T21:13:19.160Z,10.32
2022-10-22T21:15:48.558Z,10.07
2022-10-22T21:18:19.836Z,9.80
2022-10-22T21:20:49.002Z,9.48
2022-10-22T21:23:18.416Z,9.55
2022-10-22T21:25:57.652Z,9.23
2022-10-22T21:28:27.247Z,8.30
2022-10-22T21:30:56.723Z,8.82
2022-10-22T21:33:32.922Z,8.52
2022-10-22T21:36:02.150Z,7.88
2022-10-22T21:38:31.335Z,7.75
2022-10-22T21:41:05.810Z,7.88
2022-10-22T21:43:36.336Z,8.00
2022-10-22T21:46:08.270Z,7.80
2022-10-22T21:48:40.050Z,6.78
2022-10-22T21:51:22.246Z,6.78
2022-10-22T21:56:42.023Z,6.18
2022-10-22T21:59:11.399Z,6.40
2022-10-22T22:01:40.646Z,6.47
2022-10-22T22:04:12.039Z,6.80
2022-10-22T22:06:41.239Z,6.65
2022-10-22T22:09:10.423Z,6.68
2022-10-22T22:11:44.899Z,7.18
2022-10-22T22:14:14.807Z,6.47
2022-10-22T22:16:44.077Z,7.22
2022-10-22T22:19:15.173Z,6.95
2022-10-22T22:21:44.544Z,7.65
2022-10-22T22:24:15.181Z,6.93
2022-10-22T22:26:49.346Z,6.30
2022-10-22T22:29:19.034Z,7.28
2022-10-22T22:31:48.116Z,7.07
2022-10-22T22:34:19.558Z,6.00
2022-10-22T22:36:53.790Z,6.40
2022-10-22T22:39:24.671Z,6.65
2022-10-22T22:41:53.933Z,5.75
2022-10-22T22:44:23.016Z,5.70
2022-10-22T22:46:52.718Z,6.25
2022-10-22T22:49:23.835Z,5.95
2022-10-22T22:51:58.187Z,6.35
2022-10-22T22:54:27.367Z,5.68
2022-10-22T22:56:56.478Z,6.10
2022-10-22T22:59:25.615Z,6.10
2022-10-22T23:01:54.713Z,5.93
2022-10-22T23:04:31.114Z,5.60
2022-10-22T23:07:05.324Z,5.80
2022-10-22T23:09:39.514Z,5.90
2022-10-22T23:12:09.135Z,5.90
2022-10-22T23:14:38.137Z,6.18
2022-10-22T23:17:07.461Z,5.95
2022-10-22T23:19:38.610Z,6.35
2022-10-22T23:22:08.856Z,5.80
2022-10-22T23:24:37.995Z,5.82
2022-10-22T23:27:12.077Z,6.30
2022-10-22T23:29:41.187Z,6.03
2022-10-22T23:32:20.067Z,6.50
2022-10-22T23:34:51.684Z,6.80
2022-10-22T23:37:20.832Z,7.20
2022-10-22T23:39:49.968Z,7.22
2022-10-22T23:42:19.051Z,7.10
2022-10-22T23:44:48.108Z,6.60
2022-10-22T23:47:17.255Z,6.90
2022-10-22T23:49:46.410Z,7.43
2022-10-22T23:52:17.797Z,6.90
2022-10-22T23:54:47.056Z,6.90
2022-10-22T23:57:16.244Z,7.32
2022-10-22T23:59:45.767Z,7.10
